sensor_id;sensor_type;location;lat;lon;timestamp;P1;durP1;ratioP1;P2;durP2;ratioP2
73814;SDS011;62145;55.648;37.602;2024-01-11T00:01:58;7.40;;;2.45;;
73814;SDS011;62145;55.648;37.602;2024-01-11T00:04:24;5.35;;;1.63;;
73814;SDS011;62145;55.648;37.602;2024-01-11T00:06:50;6.50;;;1.80;;
73814;SDS011;62145;55.648;37.602;2024-01-11T00:09:16;6.38;;;2.05;;
73814;SDS011;62145;55.648;37.602;2024-01-11T00:11:43;6.63;;;2.00;;
73814;SDS011;62145;55.648;37.602;2024-01-11T00:14:09;7.28;;;2.25;;
73814;SDS011;62145;55.648;37.602;2024-01-11T00:16:36;7.33;;;2.30;;
73814;SDS011;62145;55.648;37.602;2024-01-11T00:19:02;6.47;;;2.30;;
73814;SDS011;62145;55.648;37.602;2024-01-11T00:21:28;7.10;;;1.80;;
73814;SDS011;62145;55.648;37.602;2024-01-11T00:23:54;4.63;;;1.63;;
73814;SDS011;62145;55.648;37.602;2024-01-11T00:26:20;3.87;;;1.00;;
73814;SDS011;62145;55.648;37.602;2024-01-11T00:28:46;8.13;;;2.45;;
73814;SDS011;62145;55.648;37.602;2024-01-11T00:31:12;7.30;;;2.15;;
73814;SDS011;62145;55.648;37.602;2024-01-11T00:33:38;8.27;;;2.65;;
73814;SDS011;62145;55.648;37.602;2024-01-11T00:36:04;6.63;;;2.43;;
73814;SDS011;62145;55.648;37.602;2024-01-11T00:38:30;5.43;;;1.75;;
73814;SDS011;62145;55.648;37.602;2024-01-11T00:40:56;5.63;;;2.13;;
73814;SDS011;62145;55.648;37.602;2024-01-11T00:43:22;7.07;;;2.10;;
73814;SDS011;62145;55.648;37.602;2024-01-11T00:45:48;7.40;;;2.30;;
73814;SDS011;62145;55.648;37.602;2024-01-11T00:48:14;9.18;;;2.55;;
73814;SDS011;62145;55.648;37.602;2024-01-11T00:50:40;7.47;;;2.03;;
73814;SDS011;62145;55.648;37.602;2024-01-11T00:53:06;8.10;;;2.00;;
73814;SDS011;62145;55.648;37.602;2024-01-11T00:55:32;6.90;;;2.20;;
73814;SDS011;62145;55.648;37.602;2024-01-11T00:57:58;6.40;;;2.15;;
73814;SDS011;62145;55.648;37.602;2024-01-11T01:00:24;6.30;;;2.13;;
73814;SDS011;62145;55.648;37.602;2024-01-11T01:02:50;5.40;;;1.57;;
73814;SDS011;62145;55.648;37.602;2024-01-11T01:05:16;7.20;;;2.15;;
73814;SDS011;62145;55.648;37.602;2024-01-11T01:07:42;8.70;;;2.30;;
73814;SDS011;62145;55.648;37.602;2024-01-11T01:10:08;5.50;;;1.80;;
73814;SDS011;62145;55.648;37.602;2024-01-11T01:12:34;7.53;;;2.20;;
73814;SDS011;62145;55.648;37.602;2024-01-11T01:15:00;5.60;;;1.95;;
73814;SDS011;62145;55.648;37.602;2024-01-11T01:17:27;6.35;;;1.77;;
73814;SDS011;62145;55.648;37.602;2024-01-11T01:19:53;7.30;;;1.98;;
73814;SDS011;62145;55.648;37.602;2024-01-11T01:22:19;6.30;;;1.60;;
73814;SDS011;62145;55.648;37.602;2024-01-11T01:24:45;5.13;;;1.70;;
73814;SDS011;62145;55.648;37.602;2024-01-11T01:27:11;4.78;;;1.38;;
73814;SDS011;62145;55.648;37.602;2024-01-11T01:29:37;7.97;;;2.13;;
73814;SDS011;62145;55.648;37.602;2024-01-11T01:32:03;7.18;;;1.63;;
73814;SDS011;62145;55.648;37.602;2024-01-11T01:34:29;6.88;;;1.88;;
73814;SDS011;62145;55.648;37.602;2024-01-11T01:36:55;7.30;;;2.08;;
73814;SDS011;62145;55.648;37.602;2024-01-11T01:39:21;5.18;;;1.55;;
73814;SDS011;62145;55.648;37.602;2024-01-11T01:41:47;4.90;;;1.17;;
73814;SDS011;62145;55.648;37.602;2024-01-11T01:44:13;6.78;;;1.67;;
73814;SDS011;62145;55.648;37.602;2024-01-11T01:46:39;3.45;;;1.20;;
73814;SDS011;62145;55.648;37.602;2024-01-11T01:49:05;5.97;;;2.10;;
73814;SDS011;62145;55.648;37.602;2024-01-11T01:51:31;5.27;;;1.80;;
73814;SDS011;62145;55.648;37.602;2024-01-11T01:53:57;6.57;;;2.00;;
73814;SDS011;62145;55.648;37.602;2024-01-11T01:56:24;2.75;;;1.02;;
73814;SDS011;62145;55.648;37.602;2024-01-11T01:58:50;5.25;;;1.30;;
73814;SDS011;62145;55.648;37.602;2024-01-11T02:01:17;4.03;;;1.20;;
73814;SDS011;62145;55.648;37.602;2024-01-11T02:03:45;7.33;;;2.20;;
73814;SDS011;62145;55.648;37.602;2024-01-11T02:06:11;6.07;;;1.88;;
73814;SDS011;62145;55.648;37.602;2024-01-11T02:08:38;7.05;;;2.03;;
73814;SDS011;62145;55.648;37.602;2024-01-11T02:11:05;5.68;;;1.88;;
73814;SDS011;62145;55.648;37.602;2024-01-11T02:13:31;6.30;;;1.67;;
73814;SDS011;62145;55.648;37.602;2024-01-11T02:15:57;6.80;;;1.98;;
73814;SDS011;62145;55.648;37.602;2024-01-11T02:18:23;4.53;;;1.60;;
73814;SDS011;62145;55.648;37.602;2024-01-11T02:20:49;6.68;;;1.83;;
73814;SDS011;62145;55.648;37.602;2024-01-11T02:23:17;5.50;;;1.53;;
73814;SDS011;62145;55.648;37.602;2024-01-11T02:25:44;5.20;;;1.55;;
73814;SDS011;62145;55.648;37.602;2024-01-11T02:28:09;5.97;;;1.92;;
73814;SDS011;62145;55.648;37.602;2024-01-11T02:30:36;5.50;;;1.50;;
73814;SDS011;62145;55.648;37.602;2024-01-11T02:33:03;5.10;;;1.57;;
73814;SDS011;62145;55.648;37.602;2024-01-11T02:35:30;6.18;;;2.00;;
73814;SDS011;62145;55.648;37.602;2024-01-11T02:37:57;4.97;;;1.42;;
73814;SDS011;62145;55.648;37.602;2024-01-11T02:40:23;4.35;;;1.48;;
73814;SDS011;62145;55.648;37.602;2024-01-11T02:42:49;6.60;;;2.03;;
73814;SDS011;62145;55.648;37.602;2024-01-11T02:45:15;5.33;;;1.53;;
73814;SDS011;62145;55.648;37.602;2024-01-11T02:47:41;6.45;;;1.50;;
73814;SDS011;62145;55.648;37.602;2024-01-11T02:50:07;6.68;;;1.73;;
73814;SDS011;62145;55.648;37.602;2024-01-11T02:52:34;5.65;;;1.50;;
73814;SDS011;62145;55.648;37.602;2024-01-11T02:55:00;5.93;;;1.47;;
73814;SDS011;62145;55.648;37.602;2024-01-11T02:57:27;6.68;;;1.40;;
73814;SDS011;62145;55.648;37.602;2024-01-11T02:59:53;5.75;;;1.30;;
73814;SDS011;62145;55.648;37.602;2024-01-11T03:02:19;4.18;;;1.50;;
73814;SDS011;62145;55.648;37.602;2024-01-11T03:04:44;3.90;;;0.93;;
73814;SDS011;62145;55.648;37.602;2024-01-11T03:07:10;6.00;;;1.52;;
73814;SDS011;62145;55.648;37.602;2024-01-11T03:09:36;5.78;;;1.48;;
73814;SDS011;62145;55.648;37.602;2024-01-11T03:12:02;4.20;;;1.40;;
73814;SDS011;62145;55.648;37.602;2024-01-11T03:14:28;3.40;;;0.95;;
73814;SDS011;62145;55.648;37.602;2024-01-11T03:16:54;4.43;;;1.33;;
73814;SDS011;62145;55.648;37.602;2024-01-11T03:19:20;4.25;;;1.33;;
73814;SDS011;62145;55.648;37.602;2024-01-11T03:21:46;4.00;;;1.17;;
73814;SDS011;62145;55.648;37.602;2024-01-11T03:24:13;4.30;;;1.02;;
73814;SDS011;62145;55.648;37.602;2024-01-11T03:26:40;4.30;;;1.23;;
73814;SDS011;62145;55.648;37.602;2024-01-11T03:29:07;4.15;;;0.90;;
73814;SDS011;62145;55.648;37.602;2024-01-11T03:31:33;3.07;;;0.80;;
73814;SDS011;62145;55.648;37.602;2024-01-11T03:33:58;1.95;;;0.40;;
73814;SDS011;62145;55.648;37.602;2024-01-11T03:36:25;3.60;;;1.00;;
73814;SDS011;62145;55.648;37.602;2024-01-11T03:38:51;3.60;;;0.93;;
73814;SDS011;62145;55.648;37.602;2024-01-11T03:41:17;3.60;;;0.90;;
73814;SDS011;62145;55.648;37.602;2024-01-11T03:43:43;3.55;;;0.90;;
73814;SDS011;62145;55.648;37.602;2024-01-11T03:46:09;3.38;;;0.80;;
73814;SDS011;62145;55.648;37.602;2024-01-11T03:48:36;2.90;;;0.55;;
73814;SDS011;62145;55.648;37.602;2024-01-11T03:51:02;2.65;;;0.77;;
73814;SDS011;62145;55.648;37.602;2024-01-11T03:53:28;2.73;;;0.90;;
73814;SDS011;62145;55.648;37.602;2024-01-11T03:55:54;2.95;;;0.77;;
73814;SDS011;62145;55.648;37.602;2024-01-11T03:58:20;4.28;;;1.00;;
73814;SDS011;62145;55.648;37.602;2024-01-11T04:00:46;3.30;;;0.80;;
73814;SDS011;62145;55.648;37.602;2024-01-11T04:03:12;3.55;;;0.70;;
73814;SDS011;62145;55.648;37.602;2024-01-11T04:05:38;2.28;;;0.55;;
73814;SDS011;62145;55.648;37.602;2024-01-11T04:08:05;1.65;;;0.38;;
73814;SDS011;62145;55.648;37.602;2024-01-11T04:10:32;2.75;;;0.82;;
73814;SDS011;62145;55.648;37.602;2024-01-11T04:12:58;2.83;;;0.50;;
73814;SDS011;62145;55.648;37.602;2024-01-11T04:15:24;2.78;;;0.70;;
73814;SDS011;62145;55.648;37.602;2024-01-11T04:17:50;2.45;;;0.70;;
73814;SDS011;62145;55.648;37.602;2024-01-11T04:20:16;2.92;;;0.50;;
73814;SDS011;62145;55.648;37.602;2024-01-11T04:22:42;3.17;;;0.80;;
73814;SDS011;62145;55.648;37.602;2024-01-11T04:25:08;3.17;;;0.88;;
73814;SDS011;62145;55.648;37.602;2024-01-11T04:27:34;1.92;;;0.30;;
73814;SDS011;62145;55.648;37.602;2024-01-11T04:29:59;3.30;;;0.70;;
73814;SDS011;62145;55.648;37.602;2024-01-11T04:32:26;2.47;;;0.40;;
73814;SDS011;62145;55.648;37.602;2024-01-11T04:34:52;2.33;;;0.45;;
73814;SDS011;62145;55.648;37.602;2024-01-11T04:37:18;2.88;;;0.73;;
73814;SDS011;62145;55.648;37.602;2024-01-11T04:39:44;2.92;;;0.50;;
73814;SDS011;62145;55.648;37.602;2024-01-11T04:42:10;3.08;;;0.75;;
73814;SDS011;62145;55.648;37.602;2024-01-11T04:44:36;2.57;;;0.77;;
73814;SDS011;62145;55.648;37.602;2024-01-11T04:47:02;2.72;;;0.60;;
73814;SDS011;62145;55.648;37.602;2024-01-11T04:49:28;3.10;;;0.80;;
73814;SDS011;62145;55.648;37.602;2024-01-11T04:51:54;1.58;;;0.43;;
73814;SDS011;62145;55.648;37.602;2024-01-11T04:54:21;2.90;;;0.63;;
73814;SDS011;62145;55.648;37.602;2024-01-11T04:56:47;4.10;;;0.80;;
73814;SDS011;62145;55.648;37.602;2024-01-11T04:59:13;1.77;;;0.30;;
73814;SDS011;62145;55.648;37.602;2024-01-11T05:01:39;2.05;;;0.60;;
73814;SDS011;62145;55.648;37.602;2024-01-11T05:04:06;3.37;;;0.70;;
73814;SDS011;62145;55.648;37.602;2024-01-11T05:06:32;3.15;;;0.70;;
73814;SDS011;62145;55.648;37.602;2024-01-11T05:08:58;2.78;;;0.70;;
73814;SDS011;62145;55.648;37.602;2024-01-11T05:11:24;3.88;;;1.00;;
73814;SDS011;62145;55.648;37.602;2024-01-11T05:13:50;3.20;;;0.60;;
73814;SDS011;62145;55.648;37.602;2024-01-11T05:16:21;2.55;;;0.85;;
73814;SDS011;62145;55.648;37.602;2024-01-11T05:18:51;3.20;;;0.90;;
73814;SDS011;62145;55.648;37.602;2024-01-11T05:21:18;2.83;;;0.80;;
73814;SDS011;62145;55.648;37.602;2024-01-11T05:23:45;3.00;;;0.73;;
73814;SDS011;62145;55.648;37.602;2024-01-11T05:26:12;3.40;;;0.90;;
73814;SDS011;62145;55.648;37.602;2024-01-11T05:28:40;3.35;;;0.80;;
73814;SDS011;62145;55.648;37.602;2024-01-11T05:31:07;5.15;;;0.90;;
73814;SDS011;62145;55.648;37.602;2024-01-11T05:33:34;3.42;;;0.90;;
73814;SDS011;62145;55.648;37.602;2024-01-11T05:36:00;3.47;;;0.93;;
73814;SDS011;62145;55.648;37.602;2024-01-11T05:38:26;2.93;;;0.70;;
73814;SDS011;62145;55.648;37.602;2024-01-11T05:40:52;3.10;;;0.85;;
73814;SDS011;62145;55.648;37.602;2024-01-11T05:43:18;3.35;;;0.80;;
73814;SDS011;62145;55.648;37.602;2024-01-11T05:45:44;3.13;;;0.70;;
73814;SDS011;62145;55.648;37.602;2024-01-11T05:48:11;3.70;;;0.70;;
73814;SDS011;62145;55.648;37.602;2024-01-11T05:50:37;4.28;;;0.80;;
73814;SDS011;62145;55.648;37.602;2024-01-11T05:53:03;2.50;;;0.55;;
73814;SDS011;62145;55.648;37.602;2024-01-11T05:55:29;2.65;;;0.70;;
73814;SDS011;62145;55.648;37.602;2024-01-11T05:57:55;2.55;;;0.50;;
73814;SDS011;62145;55.648;37.602;2024-01-11T06:00:21;3.37;;;0.60;;
73814;SDS011;62145;55.648;37.602;2024-01-11T06:02:47;2.92;;;0.70;;
73814;SDS011;62145;55.648;37.602;2024-01-11T06:05:13;1.48;;;0.28;;
73814;SDS011;62145;55.648;37.602;2024-01-11T06:07:40;2.80;;;0.80;;
73814;SDS011;62145;55.648;37.602;2024-01-11T06:10:07;2.63;;;0.70;;
73814;SDS011;62145;55.648;37.602;2024-01-11T06:12:34;2.17;;;0.50;;
73814;SDS011;62145;55.648;37.602;2024-01-11T06:15:01;2.35;;;0.50;;
73814;SDS011;62145;55.648;37.602;2024-01-11T06:17:29;3.05;;;0.70;;
73814;SDS011;62145;55.648;37.602;2024-01-11T06:19:55;3.28;;;1.02;;
73814;SDS011;62145;55.648;37.602;2024-01-11T06:22:21;3.17;;;0.80;;
73814;SDS011;62145;55.648;37.602;2024-01-11T06:24:47;3.88;;;1.00;;
73814;SDS011;62145;55.648;37.602;2024-01-11T06:27:14;3.90;;;1.10;;
73814;SDS011;62145;55.648;37.602;2024-01-11T06:29:40;3.28;;;0.90;;
73814;SDS011;62145;55.648;37.602;2024-01-11T06:32:07;8.20;;;0.90;;
73814;SDS011;62145;55.648;37.602;2024-01-11T06:34:34;2.30;;;0.50;;
73814;SDS011;62145;55.648;37.602;2024-01-11T06:37:01;3.08;;;0.70;;
73814;SDS011;62145;55.648;37.602;2024-01-11T06:39:28;3.33;;;0.95;;
73814;SDS011;62145;55.648;37.602;2024-01-11T06:42:03;2.95;;;0.80;;
73814;SDS011;62145;55.648;37.602;2024-01-11T06:44:31;3.47;;;0.80;;
73814;SDS011;62145;55.648;37.602;2024-01-11T06:46:57;3.90;;;0.77;;
73814;SDS011;62145;55.648;37.602;2024-01-11T06:49:23;2.90;;;0.70;;
73814;SDS011;62145;55.648;37.602;2024-01-11T06:51:49;3.92;;;0.75;;
73814;SDS011;62145;55.648;37.602;2024-01-11T06:54:15;2.73;;;0.60;;
73814;SDS011;62145;55.648;37.602;2024-01-11T06:56:41;5.18;;;1.52;;
73814;SDS011;62145;55.648;37.602;2024-01-11T06:59:07;4.47;;;1.20;;
73814;SDS011;62145;55.648;37.602;2024-01-11T07:01:33;6.43;;;1.15;;
73814;SDS011;62145;55.648;37.602;2024-01-11T07:03:59;2.80;;;0.73;;
73814;SDS011;62145;55.648;37.602;2024-01-11T07:06:25;4.37;;;0.80;;
73814;SDS011;62145;55.648;37.602;2024-01-11T07:08:51;3.17;;;0.80;;
73814;SDS011;62145;55.648;37.602;2024-01-11T07:11:17;4.70;;;1.55;;
73814;SDS011;62145;55.648;37.602;2024-01-11T07:13:43;3.60;;;0.95;;
73814;SDS011;62145;55.648;37.602;2024-01-11T07:16:09;2.73;;;0.87;;
73814;SDS011;62145;55.648;37.602;2024-01-11T07:18:35;2.55;;;0.50;;
73814;SDS011;62145;55.648;37.602;2024-01-11T07:21:01;4.32;;;0.80;;
73814;SDS011;62145;55.648;37.602;2024-01-11T07:23:27;2.35;;;0.68;;
73814;SDS011;62145;55.648;37.602;2024-01-11T07:25:53;2.70;;;0.57;;
73814;SDS011;62145;55.648;37.602;2024-01-11T07:28:19;2.60;;;0.55;;
73814;SDS011;62145;55.648;37.602;2024-01-11T07:30:51;3.40;;;0.60;;
73814;SDS011;62145;55.648;37.602;2024-01-11T07:33:20;2.92;;;0.60;;
73814;SDS011;62145;55.648;37.602;2024-01-11T07:35:47;2.73;;;0.73;;
73814;SDS011;62145;55.648;37.602;2024-01-11T07:38:14;3.33;;;0.85;;
73814;SDS011;62145;55.648;37.602;2024-01-11T07:40:40;4.07;;;0.80;;
73814;SDS011;62145;55.648;37.602;2024-01-11T07:43:06;2.22;;;0.50;;
73814;SDS011;62145;55.648;37.602;2024-01-11T07:45:32;2.83;;;0.82;;
73814;SDS011;62145;55.648;37.602;2024-01-11T07:47:58;1.80;;;0.37;;
73814;SDS011;62145;55.648;37.602;2024-01-11T07:50:25;3.92;;;0.80;;
73814;SDS011;62145;55.648;37.602;2024-01-11T07:52:51;2.97;;;0.68;;
73814;SDS011;62145;55.648;37.602;2024-01-11T07:55:17;3.42;;;0.70;;
73814;SDS011;62145;55.648;37.602;2024-01-11T07:57:44;2.27;;;0.50;;
73814;SDS011;62145;55.648;37.602;2024-01-11T08:00:10;2.65;;;0.60;;
73814;SDS011;62145;55.648;37.602;2024-01-11T08:02:39;2.67;;;0.70;;
73814;SDS011;62145;55.648;37.602;2024-01-11T08:05:05;2.25;;;0.50;;
73814;SDS011;62145;55.648;37.602;2024-01-11T08:07:31;2.97;;;0.60;;
73814;SDS011;62145;55.648;37.602;2024-01-11T08:09:57;3.17;;;0.53;;
73814;SDS011;62145;55.648;37.602;2024-01-11T08:12:23;3.17;;;0.50;;
73814;SDS011;62145;55.648;37.602;2024-01-11T08:14:50;3.33;;;0.30;;
73814;SDS011;62145;55.648;37.602;2024-01-11T08:17:16;2.33;;;0.57;;
73814;SDS011;62145;55.648;37.602;2024-01-11T08:19:42;1.17;;;0.23;;
73814;SDS011;62145;55.648;37.602;2024-01-11T08:22:09;1.90;;;0.40;;
73814;SDS011;62145;55.648;37.602;2024-01-11T08:24:35;6.80;;;0.70;;
73814;SDS011;62145;55.648;37.602;2024-01-11T08:27:01;2.38;;;0.50;;
73814;SDS011;62145;55.648;37.602;2024-01-11T08:29:27;2.58;;;0.60;;
73814;SDS011;62145;55.648;37.602;2024-01-11T08:31:53;2.50;;;0.60;;
73814;SDS011;62145;55.648;37.602;2024-01-11T08:34:22;1.85;;;0.32;;
73814;SDS011;62145;55.648;37.602;2024-01-11T08:36:49;3.22;;;0.63;;
73814;SDS011;62145;55.648;37.602;2024-01-11T08:39:15;2.17;;;0.47;;
73814;SDS011;62145;55.648;37.602;2024-01-11T08:41:42;2.42;;;0.55;;
73814;SDS011;62145;55.648;37.602;2024-01-11T08:44:08;2.87;;;0.60;;
73814;SDS011;62145;55.648;37.602;2024-01-11T08:46:34;2.70;;;0.50;;
73814;SDS011;62145;55.648;37.602;2024-01-11T08:49:00;3.85;;;0.65;;
73814;SDS011;62145;55.648;37.602;2024-01-11T08:51:29;3.00;;;0.80;;
73814;SDS011;62145;55.648;37.602;2024-01-11T08:53:56;2.73;;;0.30;;
73814;SDS011;62145;55.648;37.602;2024-01-11T08:56:22;3.00;;;0.70;;
73814;SDS011;62145;55.648;37.602;2024-01-11T08:58:48;3.22;;;0.75;;
73814;SDS011;62145;55.648;37.602;2024-01-11T09:01:15;4.88;;;0.80;;
73814;SDS011;62145;55.648;37.602;2024-01-11T09:03:41;3.03;;;0.70;;
73814;SDS011;62145;55.648;37.602;2024-01-11T09:06:07;2.15;;;0.43;;
73814;SDS011;62145;55.648;37.602;2024-01-11T09:08:33;4.72;;;0.50;;
73814;SDS011;62145;55.648;37.602;2024-01-11T09:11:00;2.30;;;0.43;;
73814;SDS011;62145;55.648;37.602;2024-01-11T09:13:26;1.80;;;0.38;;
73814;SDS011;62145;55.648;37.602;2024-01-11T09:15:53;3.50;;;0.43;;
73814;SDS011;62145;55.648;37.602;2024-01-11T09:18:19;2.45;;;0.40;;
73814;SDS011;62145;55.648;37.602;2024-01-11T09:20:47;2.53;;;0.60;;
73814;SDS011;62145;55.648;37.602;2024-01-11T09:23:14;2.75;;;0.50;;
73814;SDS011;62145;55.648;37.602;2024-01-11T09:25:42;3.13;;;0.50;;
73814;SDS011;62145;55.648;37.602;2024-01-11T09:28:08;3.40;;;0.67;;
73814;SDS011;62145;55.648;37.602;2024-01-11T09:30:34;1.60;;;0.38;;
73814;SDS011;62145;55.648;37.602;2024-01-11T09:33:01;2.10;;;0.43;;
73814;SDS011;62145;55.648;37.602;2024-01-11T09:35:27;3.42;;;0.60;;
73814;SDS011;62145;55.648;37.602;2024-01-11T09:37:53;1.58;;;0.38;;
73814;SDS011;62145;55.648;37.602;2024-01-11T09:40:19;3.60;;;0.60;;
73814;SDS011;62145;55.648;37.602;2024-01-11T09:42:46;3.55;;;0.60;;
73814;SDS011;62145;55.648;37.602;2024-01-11T09:45:12;5.10;;;0.70;;
73814;SDS011;62145;55.648;37.602;2024-01-11T09:47:39;3.20;;;0.90;;
73814;SDS011;62145;55.648;37.602;2024-01-11T09:50:06;2.77;;;0.63;;
73814;SDS011;62145;55.648;37.602;2024-01-11T09:52:35;2.28;;;0.47;;
73814;SDS011;62145;55.648;37.602;2024-01-11T09:55:03;3.92;;;0.57;;
73814;SDS011;62145;55.648;37.602;2024-01-11T09:57:30;2.65;;;0.52;;
73814;SDS011;62145;55.648;37.602;2024-01-11T10:00:00;2.90;;;0.57;;
73814;SDS011;62145;55.648;37.602;2024-01-11T10:02:30;3.40;;;0.80;;
73814;SDS011;62145;55.648;37.602;2024-01-11T10:04:56;2.75;;;0.70;;
73814;SDS011;62145;55.648;37.602;2024-01-11T10:07:23;2.05;;;0.45;;
73814;SDS011;62145;55.648;37.602;2024-01-11T10:09:50;3.30;;;0.55;;
73814;SDS011;62145;55.648;37.602;2024-01-11T10:12:22;3.07;;;0.40;;
73814;SDS011;62145;55.648;37.602;2024-01-11T10:14:53;2.85;;;0.70;;
73814;SDS011;62145;55.648;37.602;2024-01-11T10:17:19;1.48;;;0.32;;
73814;SDS011;62145;55.648;37.602;2024-01-11T10:19:46;3.00;;;0.60;;
73814;SDS011;62145;55.648;37.602;2024-01-11T10:22:12;2.97;;;0.63;;
73814;SDS011;62145;55.648;37.602;2024-01-11T10:24:38;2.20;;;0.40;;
73814;SDS011;62145;55.648;37.602;2024-01-11T10:27:05;3.72;;;0.70;;
73814;SDS011;62145;55.648;37.602;2024-01-11T10:29:36;3.53;;;0.60;;
73814;SDS011;62145;55.648;37.602;2024-01-11T10:32:03;2.97;;;0.68;;
73814;SDS011;62145;55.648;37.602;2024-01-11T10:34:29;2.83;;;0.80;;
73814;SDS011;62145;55.648;37.602;2024-01-11T10:36:55;2.93;;;0.63;;
73814;SDS011;62145;55.648;37.602;2024-01-11T10:39:23;2.70;;;0.60;;
73814;SDS011;62145;55.648;37.602;2024-01-11T10:42:04;3.63;;;0.88;;
73814;SDS011;62145;55.648;37.602;2024-01-11T10:44:32;1.90;;;0.52;;
73814;SDS011;62145;55.648;37.602;2024-01-11T10:46:59;4.25;;;1.08;;
73814;SDS011;62145;55.648;37.602;2024-01-11T10:49:28;3.57;;;1.00;;
73814;SDS011;62145;55.648;37.602;2024-01-11T10:51:59;4.63;;;0.88;;
73814;SDS011;62145;55.648;37.602;2024-01-11T10:54:27;3.13;;;1.00;;
73814;SDS011;62145;55.648;37.602;2024-01-11T10:56:54;3.20;;;0.90;;
73814;SDS011;62145;55.648;37.602;2024-01-11T10:59:21;4.18;;;0.95;;
73814;SDS011;62145;55.648;37.602;2024-01-11T11:01:54;3.70;;;1.10;;
73814;SDS011;62145;55.648;37.602;2024-01-11T11:04:22;3.30;;;0.90;;
73814;SDS011;62145;55.648;37.602;2024-01-11T11:06:49;2.70;;;0.73;;
73814;SDS011;62145;55.648;37.602;2024-01-11T11:09:20;3.85;;;0.90;;
73814;SDS011;62145;55.648;37.602;2024-01-11T11:11:48;2.33;;;0.75;;
73814;SDS011;62145;55.648;37.602;2024-01-11T11:14:15;5.60;;;1.10;;
73814;SDS011;62145;55.648;37.602;2024-01-11T11:16:41;2.50;;;0.68;;
73814;SDS011;62145;55.648;37.602;2024-01-11T11:19:08;2.42;;;0.47;;
73814;SDS011;62145;55.648;37.602;2024-01-11T11:21:47;3.00;;;0.80;;
73814;SDS011;62145;55.648;37.602;2024-01-11T11:24:13;1.85;;;0.40;;
73814;SDS011;62145;55.648;37.602;2024-01-11T11:26:39;4.43;;;0.80;;
73814;SDS011;62145;55.648;37.602;2024-01-11T11:29:06;2.88;;;0.63;;
73814;SDS011;62145;55.648;37.602;2024-01-11T11:31:42;3.78;;;0.80;;
73814;SDS011;62145;55.648;37.602;2024-01-11T11:34:12;1.80;;;0.43;;
73814;SDS011;62145;55.648;37.602;2024-01-11T11:36:42;3.13;;;0.50;;
73814;SDS011;62145;55.648;37.602;2024-01-11T11:39:13;2.77;;;0.67;;
73814;SDS011;62145;55.648;37.602;2024-01-11T11:41:39;2.60;;;0.50;;
73814;SDS011;62145;55.648;37.602;2024-01-11T11:44:06;2.47;;;0.50;;
73814;SDS011;62145;55.648;37.602;2024-01-11T11:46:32;3.08;;;0.60;;
73814;SDS011;62145;55.648;37.602;2024-01-11T11:48:58;3.90;;;0.77;;
73814;SDS011;62145;55.648;37.602;2024-01-11T11:51:25;2.67;;;0.55;;
73814;SDS011;62145;55.648;37.602;2024-01-11T11:53:51;4.45;;;0.90;;
73814;SDS011;62145;55.648;37.602;2024-01-11T11:56:22;1.65;;;0.35;;
73814;SDS011;62145;55.648;37.602;2024-01-11T11:58:48;2.97;;;0.70;;
73814;SDS011;62145;55.648;37.602;2024-01-11T12:01:17;3.17;;;0.57;;
73814;SDS011;62145;55.648;37.602;2024-01-11T12:03:44;3.72;;;1.00;;
73814;SDS011;62145;55.648;37.602;2024-01-11T12:06:17;4.00;;;1.15;;
73814;SDS011;62145;55.648;37.602;2024-01-11T12:08:45;2.95;;;0.80;;
73814;SDS011;62145;55.648;37.602;2024-01-11T12:11:13;4.38;;;1.10;;
73814;SDS011;62145;55.648;37.602;2024-01-11T12:13:40;2.93;;;0.80;;
73814;SDS011;62145;55.648;37.602;2024-01-11T12:16:07;5.95;;;1.30;;
73814;SDS011;62145;55.648;37.602;2024-01-11T12:18:33;3.47;;;1.05;;
73814;SDS011;62145;55.648;37.602;2024-01-11T12:20:59;3.58;;;0.70;;
73814;SDS011;62145;55.648;37.602;2024-01-11T12:23:25;1.92;;;0.50;;
73814;SDS011;62145;55.648;37.602;2024-01-11T12:25:56;3.50;;;1.02;;
73814;SDS011;62145;55.648;37.602;2024-01-11T12:28:23;1.17;;;0.30;;
73814;SDS011;62145;55.648;37.602;2024-01-11T12:30:49;3.75;;;1.20;;
73814;SDS011;62145;55.648;37.602;2024-01-11T12:33:15;5.10;;;1.17;;
73814;SDS011;62145;55.648;37.602;2024-01-11T12:35:42;4.17;;;1.00;;
73814;SDS011;62145;55.648;37.602;2024-01-11T12:38:08;2.90;;;0.90;;
73814;SDS011;62145;55.648;37.602;2024-01-11T12:40:37;4.03;;;0.90;;
73814;SDS011;62145;55.648;37.602;2024-01-11T12:43:04;4.10;;;1.10;;
73814;SDS011;62145;55.648;37.602;2024-01-11T12:45:36;2.80;;;0.60;;
73814;SDS011;62145;55.648;37.602;2024-01-11T12:48:06;4.93;;;1.20;;
73814;SDS011;62145;55.648;37.602;2024-01-11T12:50:33;6.72;;;1.38;;
73814;SDS011;62145;55.648;37.602;2024-01-11T12:53:12;3.25;;;0.77;;
73814;SDS011;62145;55.648;37.602;2024-01-11T12:55:47;3.65;;;1.08;;
73814;SDS011;62145;55.648;37.602;2024-01-11T12:58:18;3.60;;;0.90;;
73814;SDS011;62145;55.648;37.602;2024-01-11T13:00:45;3.10;;;0.70;;
73814;SDS011;62145;55.648;37.602;2024-01-11T13:03:11;2.60;;;0.55;;
73814;SDS011;62145;55.648;37.602;2024-01-11T13:05:37;3.42;;;0.82;;
73814;SDS011;62145;55.648;37.602;2024-01-11T13:08:08;4.85;;;1.25;;
73814;SDS011;62145;55.648;37.602;2024-01-11T13:10:35;3.55;;;0.95;;
73814;SDS011;62145;55.648;37.602;2024-01-11T13:13:01;2.57;;;0.90;;
73814;SDS011;62145;55.648;37.602;2024-01-11T13:15:29;3.85;;;0.93;;
73814;SDS011;62145;55.648;37.602;2024-01-11T13:17:58;3.83;;;0.70;;
73814;SDS011;62145;55.648;37.602;2024-01-11T13:20:26;4.65;;;1.15;;
73814;SDS011;62145;55.648;37.602;2024-01-11T13:23:15;4.07;;;0.88;;
73814;SDS011;62145;55.648;37.602;2024-01-11T13:25:42;3.57;;;0.80;;
73814;SDS011;62145;55.648;37.602;2024-01-11T13:28:10;2.47;;;0.70;;
73814;SDS011;62145;55.648;37.602;2024-01-11T13:30:40;1.98;;;0.50;;
73814;SDS011;62145;55.648;37.602;2024-01-11T13:33:06;3.72;;;1.05;;
73814;SDS011;62145;55.648;37.602;2024-01-11T13:35:41;3.05;;;0.85;;
73814;SDS011;62145;55.648;37.602;2024-01-11T13:38:10;3.77;;;0.87;;
73814;SDS011;62145;55.648;37.602;2024-01-11T13:40:36;4.47;;;0.73;;
73814;SDS011;62145;55.648;37.602;2024-01-11T13:43:03;2.33;;;0.60;;
73814;SDS011;62145;55.648;37.602;2024-01-11T13:45:29;3.08;;;0.70;;
73814;SDS011;62145;55.648;37.602;2024-01-11T13:47:55;2.47;;;0.57;;
73814;SDS011;62145;55.648;37.602;2024-01-11T13:50:22;4.83;;;1.33;;
73814;SDS011;62145;55.648;37.602;2024-01-11T13:52:52;4.18;;;0.98;;
73814;SDS011;62145;55.648;37.602;2024-01-11T13:55:18;3.42;;;1.10;;
73814;SDS011;62145;55.648;37.602;2024-01-11T13:57:47;4.25;;;0.80;;
73814;SDS011;62145;55.648;37.602;2024-01-11T14:00:17;1.65;;;0.30;;
73814;SDS011;62145;55.648;37.602;2024-01-11T14:02:45;3.37;;;0.83;;
73814;SDS011;62145;55.648;37.602;2024-01-11T14:05:12;2.70;;;0.55;;
73814;SDS011;62145;55.648;37.602;2024-01-11T14:07:40;3.33;;;1.13;;
73814;SDS011;62145;55.648;37.602;2024-01-11T14:10:07;5.35;;;1.08;;
73814;SDS011;62145;55.648;37.602;2024-01-11T14:12:35;3.88;;;0.90;;
73814;SDS011;62145;55.648;37.602;2024-01-11T14:15:05;2.57;;;0.60;;
73814;SDS011;62145;55.648;37.602;2024-01-11T14:17:33;3.90;;;0.82;;
73814;SDS011;62145;55.648;37.602;2024-01-11T14:19:59;2.30;;;0.50;;
73814;SDS011;62145;55.648;37.602;2024-01-11T14:22:27;4.75;;;1.00;;
73814;SDS011;62145;55.648;37.602;2024-01-11T14:24:53;3.15;;;0.80;;
73814;SDS011;62145;55.648;37.602;2024-01-11T14:27:21;2.63;;;0.60;;
73814;SDS011;62145;55.648;37.602;2024-01-11T14:29:47;3.17;;;0.80;;
73814;SDS011;62145;55.648;37.602;2024-01-11T14:32:15;3.65;;;0.70;;